createdAt,value
2018-01-06T00:00:23.736Z,5.23
2018-01-06T00:01:23.685Z,5.49
2018-01-06T00:02:23.633Z,5.77
2018-01-06T00:03:23.599Z,5.68
2018-01-06T00:04:23.552Z,5.66
2018-01-06T00:05:23.514Z,5.56
2018-01-06T00:06:23.448Z,5.64
2018-01-06T00:07:23.422Z,5.89
2018-01-06T00:08:23.378Z,5.86
2018-01-06T00:09:23.328Z,6.33
2018-01-06T00:10:23.291Z,6.35
2018-01-06T00:11:23.249Z,6.04
2018-01-06T00:12:23.199Z,6.00
2018-01-06T00:13:23.168Z,6.09
2018-01-06T00:14:23.129Z,6.10
2018-01-06T00:15:23.069Z,6.03
2018-01-06T00:16:23.025Z,6.19
2018-01-06T00:17:22.996Z,6.14
2018-01-06T00:18:22.937Z,6.14
2018-01-06T00:19:22.887Z,6.10
2018-01-06T00:20:22.847Z,6.03
2018-01-06T00:21:22.810Z,5.96
2018-01-06T00:22:22.760Z,5.96
2018-01-06T00:23:22.707Z,6.04
2018-01-06T00:24:22.664Z,6.04
2018-01-06T00:25:22.644Z,5.89
2018-01-06T00:26:22.578Z,5.81
2018-01-06T00:27:22.540Z,6.00
2018-01-06T00:28:22.506Z,6.18
2018-01-06T00:29:22.470Z,6.09
2018-01-06T00:30:22.414Z,6.06
2018-01-06T00:31:22.362Z,5.86
2018-01-06T00:32:22.323Z,5.86
2018-01-06T00:33:22.287Z,5.77
2018-01-06T00:34:22.237Z,5.86
2018-01-06T00:35:22.193Z,5.89
2018-01-06T00:36:22.147Z,5.83
2018-01-06T00:37:22.098Z,5.88
2018-01-06T00:38:22.057Z,6.11
2018-01-06T00:39:22.022Z,5.83
2018-01-06T00:40:21.978Z,5.81
2018-01-06T00:41:21.960Z,5.77
2018-01-06T00:42:21.881Z,5.77
2018-01-06T00:43:21.843Z,5.67
2018-01-06T00:44:21.794Z,5.64
2018-01-06T00:45:21.766Z,5.74
2018-01-06T00:46:21.725Z,5.75
2018-01-06T00:47:21.665Z,5.59
2018-01-06T00:48:21.634Z,5.64
2018-01-06T00:49:21.580Z,5.43
2018-01-06T00:50:21.536Z,5.60
2018-01-06T00:51:21.498Z,5.57
2018-01-06T00:52:21.447Z,5.49
2018-01-06T00:53:21.412Z,5.32
2018-01-06T00:54:21.372Z,5.30
2018-01-06T00:55:21.358Z,5.30
2018-01-06T00:56:21.268Z,5.49
2018-01-06T00:57:21.226Z,5.45
2018-01-06T00:58:21.177Z,5.41
2018-01-06T00:59:21.154Z,5.50
2018-01-06T01:00:21.104Z,5.52
2018-01-06T01:01:21.059Z,5.49
2018-01-06T01:02:21.016Z,5.30
2018-01-06T01:03:20.975Z,5.27
2018-01-06T01:04:20.927Z,5.30
2018-01-06T01:05:20.881Z,5.32
2018-01-06T01:06:20.840Z,5.19
2018-01-06T01:07:20.796Z,5.20
2018-01-06T01:08:20.766Z,5.30
2018-01-06T01:09:20.709Z,5.23
2018-01-06T01:10:20.652Z,5.27
2018-01-06T01:11:20.614Z,5.14
2018-01-06T01:12:20.589Z,5.27
2018-01-06T01:13:20.531Z,5.28
2018-01-06T01:14:20.482Z,5.22
2018-01-06T01:15:20.446Z,5.16
2018-01-06T01:16:20.406Z,5.09
2018-01-06T01:17:20.357Z,5.04
2018-01-06T01:18:20.311Z,5.16
2018-01-06T01:19:20.278Z,5.23
2018-01-06T01:20:20.225Z,5.20
2018-01-06T01:21:20.183Z,5.32
2018-01-06T01:22:20.138Z,5.31
2018-01-06T01:23:20.091Z,5.31
2018-01-06T01:24:20.047Z,5.10
2018-01-06T01:25:20.019Z,5.16
2018-01-06T01:26:19.956Z,5.23
2018-01-06T01:27:19.945Z,5.12
2018-01-06T01:28:19.864Z,5.13
2018-01-06T01:29:19.827Z,5.12
2018-01-06T01:30:19.782Z,5.13
2018-01-06T01:31:19.760Z,5.22
2018-01-06T01:32:19.708Z,5.64
2018-01-06T01:33:19.659Z,5.89
2018-01-06T01:34:19.610Z,5.78
2018-01-06T01:35:19.553Z,5.73
2018-01-06T01:36:19.554Z,5.70
2018-01-06T01:37:19.482Z,5.63
2018-01-06T01:38:19.441Z,5.68
2018-01-06T01:39:19.402Z,5.67
2018-01-06T01:40:19.351Z,5.55
2018-01-06T01:41:19.316Z,5.45
2018-01-06T01:42:19.260Z,5.53
2018-01-06T01:43:19.222Z,5.52
2018-01-06T01:44:19.179Z,5.49
2018-01-06T01:45:19.129Z,5.52
2018-01-06T01:46:19.089Z,5.52
2018-01-06T01:47:19.060Z,5.38
2018-01-06T01:48:18.997Z,5.46
2018-01-06T01:49:18.968Z,5.55
2018-01-06T01:50:18.924Z,5.49
2018-01-06T01:51:18.878Z,5.45
2018-01-06T01:52:18.844Z,5.34
2018-01-06T01:53:18.807Z,5.30
2018-01-06T01:54:18.734Z,5.31
2018-01-06T01:55:18.692Z,5.30
2018-01-06T01:56:18.660Z,5.37
2018-01-06T01:57:18.622Z,5.45
2018-01-06T01:58:18.566Z,5.38
2018-01-06T01:59:18.523Z,5.31
2018-01-06T02:00:18.476Z,5.41
2018-01-06T02:01:18.453Z,5.41
2018-01-06T02:02:18.379Z,5.43
2018-01-06T02:03:18.342Z,5.43
2018-01-06T02:04:18.306Z,5.48
2018-01-06T02:05:18.260Z,5.48
2018-01-06T02:06:18.212Z,5.49
2018-01-06T02:07:18.177Z,5.40
2018-01-06T02:08:18.128Z,5.52
2018-01-06T02:09:18.078Z,5.45
2018-01-06T02:10:18.029Z,5.56
2018-01-06T02:11:17.984Z,5.57
2018-01-06T02:12:17.953Z,5.53
2018-01-06T02:13:17.904Z,5.57
2018-01-06T02:14:17.869Z,5.64
2018-01-06T02:15:17.829Z,5.60
2018-01-06T02:16:17.777Z,5.55
2018-01-06T02:17:17.731Z,5.63
2018-01-06T02:18:17.690Z,5.55
2018-01-06T02:19:17.645Z,5.50
2018-01-06T02:20:17.596Z,5.64
2018-01-06T02:21:17.579Z,5.67
2018-01-06T02:22:17.517Z,5.63
2018-01-06T02:23:17.464Z,5.63
2018-01-06T02:24:17.420Z,5.74
2018-01-06T02:25:17.380Z,5.59
2018-01-06T02:26:17.339Z,5.60
2018-01-06T02:27:17.291Z,5.64
2018-01-06T02:28:17.301Z,5.66
2018-01-06T02:29:17.201Z,5.74
2018-01-06T02:30:17.168Z,5.71
2018-01-06T02:31:17.120Z,5.73
2018-01-06T02:32:17.074Z,5.73
2018-01-06T02:33:17.054Z,5.82
2018-01-06T02:34:16.996Z,5.78
2018-01-06T02:35:16.941Z,5.68
2018-01-06T02:36:16.902Z,5.66
2018-01-06T02:37:16.871Z,5.63
2018-01-06T02:38:16.823Z,5.56
2018-01-06T02:39:16.782Z,5.46
2018-01-06T02:40:16.744Z,5.45
2018-01-06T02:41:16.681Z,5.50
2018-01-06T02:42:16.645Z,5.49
2018-01-06T02:43:16.603Z,5.48
2018-01-06T02:44:16.552Z,5.34
2018-01-06T02:45:16.521Z,5.50
2018-01-06T02:46:16.465Z,5.53
2018-01-06T02:47:16.442Z,5.49
2018-01-06T02:48:16.381Z,5.49
2018-01-06T02:49:16.331Z,5.55
2018-01-06T02:50:16.292Z,5.45
2018-01-06T02:51:16.250Z,5.52
2018-01-06T02:52:16.200Z,5.41
2018-01-06T02:53:16.157Z,5.49
2018-01-06T02:54:16.124Z,5.64
2018-01-06T02:55:16.064Z,5.64
2018-01-06T02:56:16.025Z,5.57
2018-01-06T02:57:15.983Z,5.67
2018-01-06T02:58:15.953Z,5.74
2018-01-06T02:59:15.900Z,5.70
2018-01-06T03:00:15.861Z,5.64
2018-01-06T03:01:15.803Z,5.71
2018-01-06T03:02:15.767Z,5.75
2018-01-06T03:03:15.723Z,5.83
2018-01-06T03:04:15.688Z,5.86
2018-01-06T03:05:15.644Z,5.83
2018-01-06T03:06:15.598Z,5.86
2018-01-06T03:07:15.549Z,5.75
2018-01-06T03:08:15.509Z,5.77
2018-01-06T03:09:15.460Z,5.71
2018-01-06T03:10:15.434Z,5.82
2018-01-06T03:11:15.375Z,5.78
2018-01-06T03:12:15.332Z,5.88
2018-01-06T03:13:15.308Z,5.89
2018-01-06T03:14:15.251Z,5.86
2018-01-06T03:15:15.211Z,5.91
2018-01-06T03:16:15.162Z,5.82
2018-01-06T03:17:15.122Z,5.78
2018-01-06T03:18:15.071Z,5.89
2018-01-06T03:19:15.023Z,5.82
2018-01-06T03:20:14.994Z,5.68
2018-01-06T03:21:14.947Z,5.75
2018-01-06T03:22:14.895Z,5.77
2018-01-06T03:23:14.849Z,5.81
2018-01-06T03:24:14.806Z,5.71
2018-01-06T03:25:14.763Z,5.71
2018-01-06T03:26:14.723Z,5.70
2018-01-06T03:27:14.676Z,5.70
2018-01-06T03:28:14.631Z,5.60
2018-01-06T03:29:14.592Z,5.70
2018-01-06T03:30:14.554Z,5.77
2018-01-06T03:31:14.508Z,5.73
2018-01-06T03:32:14.480Z,5.74
2018-01-06T03:33:14.413Z,5.73
2018-01-06T03:34:14.378Z,5.71
2018-01-06T03:35:14.328Z,5.68
2018-01-06T03:36:14.293Z,5.73
2018-01-06T03:37:14.238Z,5.64
2018-01-06T03:38:14.204Z,5.57
2018-01-06T03:39:14.151Z,5.66
2018-01-06T03:40:14.120Z,5.74
2018-01-06T03:41:14.838Z,5.71
2018-01-06T03:42:14.035Z,5.73
2018-01-06T03:43:14.033Z,5.71
2018-01-06T03:44:13.948Z,5.68
2018-01-06T03:45:13.908Z,5.75
2018-01-06T03:46:13.856Z,5.66
2018-01-06T03:47:13.820Z,5.73
2018-01-06T03:48:13.785Z,5.68
2018-01-06T03:49:13.769Z,5.68
2018-01-06T03:50:13.715Z,5.77
2018-01-06T03:51:13.650Z,5.75
2018-01-06T03:52:13.619Z,5.91
2018-01-06T03:53:13.559Z,6.00
2018-01-06T03:54:14.350Z,5.92
2018-01-06T03:55:13.469Z,5.88
2018-01-06T03:56:13.453Z,5.98
2018-01-06T03:57:13.409Z,5.93
2018-01-06T03:58:13.350Z,6.04
2018-01-06T03:59:13.294Z,5.93
2018-01-06T04:00:13.262Z,6.03
2018-01-06T04:01:13.244Z,6.07
2018-01-06T04:02:13.195Z,6.03
2018-01-06T04:03:13.130Z,6.03
2018-01-06T04:04:13.091Z,6.01
2018-01-06T04:05:13.088Z,6.14
2018-01-06T04:06:13.012Z,6.16
2018-01-06T04:07:12.961Z,6.13
2018-01-06T04:08:12.917Z,6.07
2018-01-06T04:09:12.897Z,6.09
2018-01-06T04:10:12.818Z,6.07
2018-01-06T04:11:12.816Z,6.06
2018-01-06T04:12:12.757Z,6.11
2018-01-06T04:13:12.700Z,6.03
2018-01-06T04:14:12.641Z,6.00
2018-01-06T04:15:12.611Z,6.04
2018-01-06T04:16:12.557Z,6.04
2018-01-06T04:17:12.513Z,6.10
2018-01-06T04:18:12.487Z,6.14
2018-01-06T04:19:12.431Z,6.18
2018-01-06T04:20:12.401Z,6.13
2018-01-06T04:21:12.347Z,6.11
2018-01-06T04:22:12.305Z,6.16
2018-01-06T04:23:12.254Z,6.18
2018-01-06T04:24:12.245Z,6.33
2018-01-06T04:25:12.167Z,6.33
2018-01-06T04:26:12.130Z,6.14
2018-01-06T04:27:12.086Z,6.09
2018-01-06T04:28:12.042Z,6.09
2018-01-06T04:29:12.005Z,6.14
2018-01-06T04:30:11.965Z,6.19
2018-01-06T04:31:11.924Z,6.14
2018-01-06T04:32:11.872Z,6.01
2018-01-06T04:33:11.823Z,6.07
2018-01-06T04:34:11.784Z,5.92
2018-01-06T04:35:11.739Z,5.95
2018-01-06T04:36:11.688Z,5.78
2018-01-06T04:37:11.646Z,5.73
2018-01-06T04:38:11.606Z,5.68
2018-01-06T04:39:11.575Z,5.77
2018-01-06T04:40:11.513Z,5.75
2018-01-06T04:41:11.483Z,5.73
2018-01-06T04:42:11.434Z,5.77
2018-01-06T04:43:11.389Z,5.81
2018-01-06T04:44:11.749Z,5.73
2018-01-06T04:45:11.338Z,5.71
2018-01-06T04:46:11.254Z,5.63
2018-01-06T04:47:11.213Z,5.68
2018-01-06T04:48:11.180Z,5.68
2018-01-06T04:49:11.127Z,5.66
2018-01-06T04:50:11.091Z,5.49
2018-01-06T04:51:11.047Z,5.37
2018-01-06T04:52:11.014Z,5.32
2018-01-06T04:53:10.957Z,5.27
2018-01-06T04:54:10.914Z,5.38
2018-01-06T04:55:10.865Z,5.30
2018-01-06T04:56:10.832Z,5.09
2018-01-06T04:57:10.781Z,5.02
2018-01-06T04:58:10.751Z,5.02
2018-01-06T04:59:10.699Z,4.92
2018-01-06T05:00:10.671Z,4.86
2018-01-06T05:01:10.632Z,4.91
2018-01-06T05:02:10.562Z,5.02
2018-01-06T05:03:10.520Z,5.04
2018-01-06T05:04:10.531Z,5.10
2018-01-06T05:05:10.430Z,5.09
2018-01-06T05:06:10.446Z,5.02
2018-01-06T05:07:10.350Z,4.94
2018-01-06T05:08:10.297Z,4.86
2018-01-06T05:09:10.265Z,4.62
2018-01-06T05:10:10.217Z,4.64
2018-01-06T05:11:10.191Z,4.65
2018-01-06T05:12:10.135Z,4.77
2018-01-06T05:13:10.084Z,4.62
2018-01-06T05:14:10.036Z,4.73
2018-01-06T05:15:10.007Z,4.67
2018-01-06T05:16:09.942Z,4.64
2018-01-06T05:17:09.926Z,4.50
2018-01-06T05:18:09.883Z,4.32
2018-01-06T05:19:09.810Z,4.14
2018-01-06T05:20:09.775Z,4.21
2018-01-06T05:21:09.736Z,4.12
2018-01-06T05:22:09.710Z,3.97
2018-01-06T05:23:09.657Z,3.89
2018-01-06T05:24:09.708Z,3.97
2018-01-06T05:25:09.557Z,3.92
2018-01-06T05:26:09.529Z,3.98
2018-01-06T05:27:09.477Z,3.82
2018-01-06T05:28:09.446Z,3.89
2018-01-06T05:29:09.373Z,3.97
2018-01-06T05:30:09.326Z,4.03
2018-01-06T05:31:09.306Z,3.82
2018-01-06T05:32:09.251Z,3.79
2018-01-06T05:33:09.205Z,3.97
2018-01-06T05:34:09.159Z,3.98
2018-01-06T05:35:09.105Z,4.01
2018-01-06T05:36:09.057Z,4.15
2018-01-06T05:37:09.018Z,4.19
2018-01-06T05:38:08.973Z,3.98
2018-01-06T05:39:08.936Z,3.92
2018-01-06T05:40:08.909Z,3.92
2018-01-06T05:41:08.844Z,3.97
2018-01-06T05:42:08.806Z,3.75
2018-01-06T05:43:08.765Z,3.78
2018-01-06T05:44:08.704Z,3.72
2018-01-06T05:45:08.661Z,3.75
2018-01-06T05:46:08.617Z,3.71
2018-01-06T05:47:08.574Z,3.70
2018-01-06T05:48:08.533Z,3.47
2018-01-06T05:49:08.481Z,3.47
2018-01-06T05:50:08.457Z,3.47
2018-01-06T05:51:08.408Z,3.49
2018-01-06T05:52:08.362Z,3.39
2018-01-06T05:53:08.315Z,3.34
2018-01-06T05:54:08.270Z,3.50
2018-01-06T05:55:08.223Z,3.34
2018-01-06T05:56:08.178Z,3.28
2018-01-06T05:57:08.144Z,3.33
2018-01-06T05:58:08.081Z,3.31
2018-01-06T05:59:08.030Z,3.33
2018-01-06T06:00:08.019Z,3.28
2018-01-06T06:01:07.945Z,3.09
2018-01-06T06:02:07.901Z,3.10
2018-01-06T06:03:07.870Z,3.06
2018-01-06T06:04:07.816Z,3.21
2018-01-06T06:05:07.771Z,3.30
2018-01-06T06:06:07.728Z,3.25
2018-01-06T06:07:07.821Z,3.23
2018-01-06T06:08:07.638Z,3.16
2018-01-06T06:09:07.595Z,3.09
2018-01-06T06:10:07.551Z,3.12
2018-01-06T06:11:07.504Z,3.12
2018-01-06T06:12:07.474Z,3.10
2018-01-06T06:13:07.421Z,3.10
2018-01-06T06:14:07.380Z,3.24
2018-01-06T06:15:07.314Z,3.05
2018-01-06T06:16:07.277Z,3.20
2018-01-06T06:17:07.228Z,3.10
2018-01-06T06:18:07.191Z,3.25
2018-01-06T06:19:07.146Z,3.30
2018-01-06T06:20:07.106Z,3.10
2018-01-06T06:21:07.058Z,2.94
2018-01-06T06:22:07.009Z,2.82
2018-01-06T06:23:06.984Z,2.79
2018-01-06T06:24:06.928Z,2.88
2018-01-06T06:25:06.868Z,2.95
2018-01-06T06:26:06.854Z,3.02
2018-01-06T06:27:06.787Z,3.03
2018-01-06T06:28:06.739Z,3.02
2018-01-06T06:29:06.701Z,3.07
2018-01-06T06:30:06.640Z,2.95
2018-01-06T06:31:06.615Z,3.05
2018-01-06T06:32:06.557Z,3.02
2018-01-06T06:33:06.498Z,2.91
2018-01-06T06:34:06.482Z,2.89
2018-01-06T06:35:06.421Z,3.02
2018-01-06T06:36:06.376Z,3.07
2018-01-06T06:37:06.326Z,3.18
2018-01-06T06:38:06.295Z,3.07
2018-01-06T06:39:06.237Z,3.02
2018-01-06T06:40:06.194Z,3.02
2018-01-06T06:41:06.145Z,2.84
2018-01-06T06:42:06.107Z,2.70
2018-01-06T06:43:06.043Z,2.82
2018-01-06T06:44:06.015Z,2.81
2018-01-06T06:45:05.957Z,2.73
2018-01-06T06:46:05.922Z,2.63
2018-01-06T06:47:05.876Z,2.64
2018-01-06T06:48:05.841Z,2.49
2018-01-06T06:49:05.777Z,2.41
2018-01-06T06:50:05.746Z,2.67
2018-01-06T06:51:05.710Z,2.64
2018-01-06T06:52:05.663Z,2.69
2018-01-06T06:53:05.617Z,2.71
2018-01-06T06:54:05.568Z,2.69
2018-01-06T06:55:05.514Z,2.59
2018-01-06T06:56:05.477Z,2.69
2018-01-06T06:57:05.420Z,2.66
2018-01-06T06:58:05.390Z,2.73
2018-01-06T06:59:05.350Z,2.73
2018-01-06T07:00:05.285Z,2.73
2018-01-06T07:01:05.241Z,2.84
2018-01-06T07:02:05.201Z,2.89
2018-01-06T07:03:05.153Z,2.82
2018-01-06T07:04:05.124Z,2.73
2018-01-06T07:05:05.054Z,2.67
2018-01-06T07:06:05.023Z,2.64
2018-01-06T07:07:04.965Z,2.63
2018-01-06T07:08:04.925Z,2.77
2018-01-06T07:09:04.873Z,2.74
2018-01-06T07:10:04.835Z,2.67
2018-01-06T07:11:04.788Z,2.48
2018-01-06T07:12:04.802Z,2.41
2018-01-06T07:13:04.701Z,2.31
2018-01-06T07:14:04.646Z,2.31
2018-01-06T07:15:04.613Z,2.33
2018-01-06T07:16:04.555Z,2.45
2018-01-06T07:17:04.526Z,2.56
2018-01-06T07:18:04.470Z,2.55
2018-01-06T07:19:04.413Z,2.51
2018-01-06T07:20:04.378Z,2.51
2018-01-06T07:21:04.347Z,2.49
2018-01-06T07:22:04.315Z,2.40
2018-01-06T07:23:04.254Z,2.41
2018-01-06T07:24:04.232Z,2.45
2018-01-06T07:25:04.153Z,2.37
2018-01-06T07:26:04.097Z,2.34
2018-01-06T07:27:04.067Z,2.45
2018-01-06T07:28:04.037Z,2.41
2018-01-06T07:29:03.970Z,2.52
2018-01-06T07:30:03.947Z,2.56
2018-01-06T07:31:03.921Z,2.59
2018-01-06T07:32:03.818Z,2.52
2018-01-06T07:33:03.811Z,2.52
2018-01-06T07:34:03.745Z,2.41
2018-01-06T07:35:03.699Z,2.38
2018-01-06T07:36:03.678Z,2.34
2018-01-06T07:37:03.672Z,2.30
2018-01-06T07:38:03.553Z,2.31
2018-01-06T07:39:03.533Z,2.45
2018-01-06T07:40:03.455Z,2.41
2018-01-06T07:41:03.408Z,2.38
2018-01-06T07:42:03.402Z,2.46
2018-01-06T07:43:03.397Z,2.49
2018-01-06T07:44:03.311Z,2.49
2018-01-06T07:45:03.269Z,2.44
2018-01-06T07:46:03.227Z,2.48
2018-01-06T07:47:03.165Z,2.44
2018-01-06T07:48:03.159Z,2.48
2018-01-06T07:49:03.058Z,2.64
2018-01-06T07:50:03.028Z,2.58
2018-01-06T07:51:02.965Z,2.66
2018-01-06T07:52:02.933Z,2.76
2018-01-06T07:53:02.951Z,2.85
2018-01-06T07:54:02.859Z,2.95
2018-01-06T07:55:02.814Z,2.89
2018-01-06T07:56:02.792Z,2.85
2018-01-06T07:57:02.718Z,2.88
2018-01-06T07:58:02.647Z,3.05
2018-01-06T07:59:02.618Z,2.94
2018-01-06T08:00:02.635Z,2.95
2018-01-06T08:01:02.533Z,2.88
2018-01-06T08:02:02.682Z,2.89
2018-01-06T08:03:02.433Z,2.74
2018-01-06T08:04:02.432Z,2.77
2018-01-06T08:05:02.409Z,2.82
2018-01-06T08:06:02.292Z,2.85
2018-01-06T08:07:02.259Z,2.92
2018-01-06T08:08:02.207Z,2.89
2018-01-06T08:09:02.139Z,2.92
2018-01-06T08:10:02.119Z,2.98
2018-01-06T08:11:02.137Z,3.05
2018-01-06T08:12:01.995Z,3.05
2018-01-06T08:13:02.028Z,3.06
2018-01-06T08:14:02.010Z,3.12
2018-01-06T08:15:01.898Z,3.10
2018-01-06T08:16:01.862Z,3.15
2018-01-06T08:17:01.800Z,3.13
2018-01-06T08:18:01.761Z,3.21
2018-01-06T08:19:01.702Z,3.20
2018-01-06T08:20:01.712Z,3.23
2018-01-06T08:21:01.628Z,3.31
2018-01-06T08:22:01.578Z,3.28
2018-01-06T08:23:01.522Z,3.34
2018-01-06T08:24:01.479Z,3.47
2018-01-06T08:25:01.437Z,3.50
2018-01-06T08:26:01.390Z,3.49
2018-01-06T08:27:01.385Z,3.47
2018-01-06T08:28:01.297Z,3.57
2018-01-06T08:29:01.249Z,3.60
2018-01-06T08:30:01.237Z,3.67
2018-01-06T08:31:01.165Z,3.65
2018-01-06T08:32:01.156Z,3.71
2018-01-06T08:33:01.076Z,3.71
2018-01-06T08:34:01.041Z,3.71
2018-01-06T08:35:00.982Z,3.75
2018-01-06T08:36:00.944Z,3.82
2018-01-06T08:37:00.901Z,3.78
2018-01-06T08:38:00.879Z,3.96
2018-01-06T08:39:00.817Z,3.97
2018-01-06T08:40:00.802Z,3.96
2018-01-06T08:41:00.717Z,3.94
2018-01-06T08:42:00.673Z,3.85
2018-01-06T08:43:00.622Z,3.94
2018-01-06T08:44:00.594Z,3.96
2018-01-06T08:45:00.527Z,4.01
2018-01-06T08:46:00.489Z,3.98
2018-01-06T08:47:00.453Z,4.04
2018-01-06T08:48:00.417Z,4.03
2018-01-06T08:49:00.373Z,4.07
2018-01-06T08:50:00.338Z,4.04
2018-01-06T08:51:00.286Z,4.18
2018-01-06T08:52:00.242Z,4.03
2018-01-06T08:53:00.214Z,4.08
2018-01-06T08:54:00.166Z,4.18
2018-01-06T08:55:00.108Z,4.19
2018-01-06T08:56:00.065Z,4.18
2018-01-06T08:57:00.008Z,4.19
2018-01-06T08:58:00.075Z,4.18
2018-01-06T08:58:59.943Z,4.16
2018-01-06T08:59:59.881Z,4.16
2018-01-06T09:00:59.852Z,4.14
2018-01-06T09:01:59.802Z,4.03
2018-01-06T09:02:59.778Z,4.00
2018-01-06T09:03:59.722Z,4.12
2018-01-06T09:04:59.691Z,4.15
2018-01-06T09:05:59.636Z,4.10
2018-01-06T09:06:59.580Z,4.18
2018-01-06T09:07:59.559Z,4.24
2018-01-06T09:08:59.496Z,4.33
2018-01-06T09:09:59.459Z,4.43
2018-01-06T09:10:59.404Z,4.52
2018-01-06T09:11:59.359Z,4.69
2018-01-06T09:12:59.359Z,4.86
2018-01-06T09:13:59.282Z,4.88
2018-01-06T09:14:59.227Z,5.07
2018-01-06T09:15:59.197Z,5.31
2018-01-06T09:16:59.146Z,5.55
2018-01-06T09:17:59.107Z,5.78
2018-01-06T09:18:59.059Z,6.00
2018-01-06T09:19:59.001Z,6.11
2018-01-06T09:20:58.963Z,6.14
2018-01-06T09:21:58.929Z,6.10
2018-01-06T09:22:58.910Z,6.32
2018-01-06T09:23:58.861Z,6.40
2018-01-06T09:24:58.792Z,6.48
2018-01-06T09:25:58.780Z,6.59
2018-01-06T09:26:58.703Z,6.47
2018-01-06T09:27:58.742Z,6.61
2018-01-06T09:28:58.677Z,6.59
2018-01-06T09:29:58.585Z,6.56
2018-01-06T09:30:58.543Z,6.50
2018-01-06T09:31:58.504Z,6.51
2018-01-06T09:33:00.988Z,6.51
2018-01-06T09:33:58.411Z,6.41
2018-01-06T09:34:58.385Z,6.53
2018-01-06T09:35:58.329Z,6.56
2018-01-06T09:36:58.299Z,6.66
2018-01-06T09:37:58.261Z,6.80
2018-01-06T09:38:58.209Z,6.84
2018-01-06T09:39:58.173Z,6.91
2018-01-06T09:40:58.132Z,7.02
2018-01-06T09:41:58.092Z,7.01
2018-01-06T09:42:58.043Z,7.16
2018-01-06T09:43:57.998Z,7.26
2018-01-06T09:44:57.982Z,7.38
2018-01-06T09:45:57.936Z,7.47
2018-01-06T09:46:57.920Z,7.42
2018-01-06T09:47:57.856Z,7.52
2018-01-06T09:48:57.782Z,7.55
2018-01-06T09:49:57.744Z,7.45
2018-01-06T09:50:57.718Z,7.40
2018-01-06T09:51:57.665Z,7.56
2018-01-06T09:52:57.632Z,7.56
2018-01-06T09:53:57.587Z,7.59
2018-01-06T09:54:57.547Z,7.71
2018-01-06T09:55:57.507Z,7.79
2018-01-06T09:56:57.459Z,7.94
2018-01-06T09:57:59.407Z,7.99
2018-01-06T09:58:57.398Z,8.04
2018-01-06T09:59:57.361Z,8.03
2018-01-06T10:00:57.325Z,7.99
2018-01-06T10:01:57.269Z,8.17
2018-01-06T10:02:57.215Z,8.71
2018-01-06T10:03:57.218Z,8.96
2018-01-06T10:04:57.133Z,9.21
2018-01-06T10:05:57.100Z,9.18
2018-01-06T10:06:57.065Z,9.52
2018-01-06T10:07:57.079Z,9.61
2018-01-06T10:08:56.973Z,9.71
2018-01-06T10:09:57.012Z,9.76
2018-01-06T10:10:56.902Z,10.15
2018-01-06T10:11:56.871Z,10.53
2018-01-06T10:12:56.845Z,10.44
2018-01-06T10:13:56.809Z,10.62
2018-01-06T10:14:56.739Z,10.15
2018-01-06T10:15:56.697Z,10.14
2018-01-06T10:16:56.679Z,10.36
2018-01-06T10:17:56.663Z,10.18
2018-01-06T10:18:56.606Z,10.32
2018-01-06T10:19:56.571Z,10.60
2018-01-06T10:20:56.509Z,11.13
2018-01-06T10:21:56.482Z,11.77
2018-01-06T10:22:56.536Z,11.87
2018-01-06T10:23:56.418Z,11.97
2018-01-06T10:24:56.368Z,11.89
2018-01-06T10:25:56.347Z,11.56
2018-01-06T10:26:56.291Z,11.53
2018-01-06T10:27:56.266Z,11.13
2018-01-06T10:28:56.238Z,10.59
2018-01-06T10:29:56.207Z,10.22
2018-01-06T10:30:58.005Z,9.94
2018-01-06T10:31:56.130Z,9.76
2018-01-06T10:32:56.092Z,9.60
2018-01-06T10:33:56.053Z,9.38
2018-01-06T10:34:56.005Z,9.28
2018-01-06T10:35:55.959Z,8.99
2018-01-06T10:36:55.943Z,8.91
2018-01-06T10:37:55.904Z,8.72
2018-01-06T10:38:55.880Z,8.68
2018-01-06T10:39:55.844Z,8.68
2018-01-06T10:40:55.800Z,8.71
2018-01-06T10:41:55.757Z,8.76
2018-01-06T10:42:55.778Z,8.79
2018-01-06T10:43:55.682Z,8.86
2018-01-06T10:44:55.641Z,8.93
2018-01-06T10:45:55.609Z,8.99
2018-01-06T10:46:55.592Z,9.16
2018-01-06T10:47:55.614Z,9.25
2018-01-06T10:48:55.497Z,9.24
2018-01-06T10:49:55.443Z,9.46
2018-01-06T10:50:55.417Z,9.35
2018-01-06T10:51:55.383Z,9.48
2018-01-06T10:52:55.374Z,9.38
2018-01-06T10:53:55.305Z,9.43
2018-01-06T10:54:55.257Z,9.53
2018-01-06T10:55:55.225Z,9.50
2018-01-06T10:56:55.193Z,9.60
2018-01-06T10:57:55.168Z,9.61
2018-01-06T10:58:55.098Z,9.64
2018-01-06T10:59:55.066Z,9.64
2018-01-06T11:00:55.031Z,9.78
2018-01-06T11:01:54.989Z,9.75
2018-01-06T11:02:54.955Z,9.91
2018-01-06T11:03:54.930Z,9.93
2018-01-06T11:04:54.875Z,9.96
2018-01-06T11:05:54.846Z,9.99
2018-01-06T11:06:54.810Z,10.14
2018-01-06T11:07:54.764Z,10.14
2018-01-06T11:08:54.733Z,10.22
2018-01-06T11:09:54.693Z,10.26
2018-01-06T11:10:54.654Z,10.39
2018-01-06T11:11:54.663Z,10.39
2018-01-06T11:12:54.732Z,10.43
2018-01-06T11:13:54.537Z,10.30
2018-01-06T11:14:54.494Z,10.39
2018-01-06T11:15:54.477Z,10.36
2018-01-06T11:16:54.938Z,10.40
2018-01-06T11:17:54.365Z,10.34
2018-01-06T11:18:54.329Z,10.32
2018-01-06T11:19:54.300Z,10.34
2018-01-06T11:20:54.276Z,10.32
2018-01-06T11:21:54.231Z,10.26
2018-01-06T11:22:54.203Z,10.37
2018-01-06T11:23:54.149Z,10.32
2018-01-06T11:24:54.116Z,10.17
2018-01-06T11:25:54.094Z,10.14
2018-01-06T11:26:54.049Z,10.09
2018-01-06T11:27:53.997Z,9.89
2018-01-06T11:28:53.997Z,9.96
2018-01-06T11:29:53.947Z,9.91
2018-01-06T11:30:53.929Z,9.89
2018-01-06T11:31:53.844Z,9.73
2018-01-06T11:32:53.792Z,9.66
2018-01-06T11:33:53.757Z,9.61
2018-01-06T11:34:53.723Z,9.56
2018-01-06T11:35:53.697Z,9.49
2018-01-06T11:36:53.656Z,9.46
2018-01-06T11:37:53.608Z,9.49
2018-01-06T11:38:53.564Z,9.46
2018-01-06T11:39:53.540Z,9.49
2018-01-06T11:40:53.500Z,9.40
2018-01-06T11:41:53.454Z,9.39
2018-01-06T11:42:53.423Z,9.38
2018-01-06T11:43:53.380Z,9.34
2018-01-06T11:44:53.331Z,9.42
2018-01-06T11:45:53.307Z,9.43
2018-01-06T11:46:53.258Z,9.43
2018-01-06T11:47:53.228Z,9.34
2018-01-06T11:48:53.188Z,9.38
2018-01-06T11:49:53.131Z,9.35
2018-01-06T11:50:53.111Z,9.31
2018-01-06T11:51:53.058Z,9.25
2018-01-06T11:52:53.033Z,9.30
2018-01-06T11:53:52.977Z,9.28
2018-01-06T11:54:52.967Z,9.28
2018-01-06T11:55:52.904Z,9.32
2018-01-06T11:56:52.883Z,9.31
2018-01-06T11:57:52.822Z,9.31
2018-01-06T11:58:52.775Z,9.24
2018-01-06T11:59:52.744Z,9.28
2018-01-06T12:00:52.717Z,9.30
2018-01-06T12:01:52.781Z,9.20
2018-01-06T12:02:52.624Z,9.27
2018-01-06T12:03:52.664Z,9.24
2018-01-06T12:04:52.578Z,9.25
2018-01-06T12:05:52.517Z,9.24
2018-01-06T12:06:52.470Z,9.28
2018-01-06T12:07:52.427Z,9.25
2018-01-06T12:08:52.366Z,9.24
2018-01-06T12:09:52.353Z,9.21
2018-01-06T12:10:52.323Z,9.21
2018-01-06T12:11:52.290Z,9.21
2018-01-06T12:12:52.228Z,9.20
2018-01-06T12:13:52.217Z,9.23
2018-01-06T12:14:52.157Z,9.20
2018-01-06T12:15:52.119Z,9.20
2018-01-06T12:16:52.073Z,9.18
2018-01-06T12:17:52.045Z,9.20
2018-01-06T12:18:52.018Z,9.16
2018-01-06T12:19:51.963Z,9.16
2018-01-06T12:20:51.919Z,9.13
2018-01-06T12:21:51.880Z,9.21
2018-01-06T12:22:51.829Z,9.16
2018-01-06T12:23:51.818Z,9.15
2018-01-06T12:24:51.771Z,9.06
2018-01-06T12:25:51.728Z,8.93
2018-01-06T12:26:51.690Z,8.96
2018-01-06T12:27:51.671Z,8.87
2018-01-06T12:28:51.606Z,8.84
2018-01-06T12:29:51.568Z,8.84
2018-01-06T12:30:51.529Z,8.84
2018-01-06T12:31:51.497Z,8.86
2018-01-06T12:32:51.449Z,8.86
2018-01-06T12:33:51.392Z,8.79
2018-01-06T12:34:51.372Z,8.79
2018-01-06T12:35:51.312Z,8.83
2018-01-06T12:36:51.268Z,8.79
2018-01-06T12:37:51.234Z,8.87
2018-01-06T12:38:51.229Z,8.81
2018-01-06T12:39:51.155Z,8.86
2018-01-06T12:40:51.117Z,8.79
2018-01-06T12:41:51.070Z,8.76
2018-01-06T12:42:51.063Z,8.76
2018-01-06T12:43:50.983Z,8.72
2018-01-06T12:44:50.998Z,8.78
2018-01-06T12:45:50.926Z,8.78
2018-01-06T12:46:50.874Z,8.81
2018-01-06T12:47:50.855Z,8.78
2018-01-06T12:48:50.814Z,8.78
2018-01-06T12:49:50.745Z,8.69
2018-01-06T12:50:50.697Z,8.78
2018-01-06T12:51:50.661Z,8.81
2018-01-06T12:52:50.660Z,8.68
2018-01-06T12:53:50.598Z,8.66
2018-01-06T12:54:50.578Z,8.66
2018-01-06T12:55:50.537Z,8.68
2018-01-06T12:56:50.462Z,8.62
2018-01-06T12:57:50.427Z,8.58
2018-01-06T12:58:50.398Z,8.66
2018-01-06T12:59:50.344Z,8.66
2018-01-06T13:00:50.340Z,8.58
2018-01-06T13:01:50.285Z,8.62
2018-01-06T13:02:50.235Z,8.63
2018-01-06T13:03:50.198Z,8.71
2018-01-06T13:04:50.133Z,8.58
2018-01-06T13:05:50.128Z,8.66
2018-01-06T13:06:50.101Z,8.71
2018-01-06T13:07:50.034Z,8.71
2018-01-06T13:08:49.991Z,8.68
2018-01-06T13:09:49.942Z,8.58
2018-01-06T13:10:49.970Z,8.62
2018-01-06T13:11:49.877Z,8.51
2018-01-06T13:12:49.825Z,8.50
2018-01-06T13:13:49.783Z,8.57
2018-01-06T13:14:49.730Z,8.45
2018-01-06T13:15:49.701Z,8.50
2018-01-06T13:16:49.653Z,8.37